Weedhaven, Texas
Current Conditions -  °F | °C
As of 7:15 PM on Saturday 22 Nov 2014 (Local Time) from KPKV Reporting Station
Light Rain Light Rain  
Wind Chill: 70°   Ceiling: 1900
Heat Index: 70°   Visibility: 10mi
Dew Point: 67°   Wind: 12mph
Humidity: 92%   Direction: 190°S
Pressure: 29.8"   Gusts: 16mph
Location:  28.5342°N, 96.663°W
Report Text: KPKV 230115Z AUTO 19010G14KT 10SM -RA SCT013 BKN019 OVC030 21/20 A2980 RMK AO2 T02100197
Loading
Personal Weather Stations






























Interactive Weather Map New forecast layout! Learn more

10-Day Weather Forecast

Advertisements
Track Severe Weather on mobile